Time;durP1;ratioP1;P1;durP2;ratioP2;P2;SDS_P1;SDS_P2;PMS_P1;PMS_P2;Temp;Humidity;BMP_temperature;BMP_pressure;BME280_temperature;BME280_humidity;BME280_pressure;Samples;Min_cycle;Max_cycle;Signal;HPM_P1;HPM_P2
2023/06/09 07:16:16;;;;;;;;;23.00;21.50;;;;;21.88;54.17;100640.91;4965986;27;45589;-73
2023/06/09 07:18:41;;;;;;;;;19.25;19.25;;;;;22.09;54.31;100639.63;4965946;28;45562;-74
2023/06/09 07:21:06;;;;;;;;;25.00;22.75;;;;;22.28;53.66;100641.25;4965286;28;45541;-74
2023/06/09 07:23:32;;;;;;;;;22.25;20.75;;;;;22.50;53.19;100649.78;4964964;28;45715;-74
2023/06/09 07:25:57;;;;;;;;;21.75;21.00;;;;;22.70;52.74;100654.94;4976269;28;47022;-74
2023/06/09 07:28:22;;;;;;;;;22.25;20.75;;;;;22.91;52.57;100651.78;4970644;28;45426;-75
2023/06/09 07:30:48;;;;;;;;;22.75;21.50;;;;;23.09;52.38;100659.75;4966648;28;45375;-73
2023/06/09 07:33:16;;;;;;;;;22.00;22.00;;;;;23.26;51.91;100649.75;4965079;28;45416;-73
2023/06/09 07:35:42;;;;;;;;;23.25;22.00;;;;;23.43;51.59;100656.06;4965468;28;46994;-76
2023/06/09 07:38:08;;;;;;;;;23.25;22.00;;;;;23.58;51.07;100659.94;4965625;28;45573;-74
2023/06/09 07:40:33;;;;;;;;;21.25;20.00;;;;;23.71;51.13;100662.13;4964945;28;45815;-74
2023/06/09 07:42:58;;;;;;;;;25.25;20.75;;;;;23.81;50.76;100663.66;4963200;28;45518;-74
2023/06/09 07:45:24;;;;;;;;;23.25;21.50;;;;;23.94;50.36;100667.66;4968784;28;46494;-75
2023/06/09 07:47:50;;;;;;;;;22.50;21.75;;;;;24.03;49.83;100665.81;4975277;28;45484;-74
2023/06/09 07:50:15;;;;;;;;;23.25;19.25;;;;;24.13;49.55;100661.06;4969370;28;45649;-73
2023/06/09 07:52:41;;;;;;;;;19.75;18.75;;;;;24.19;49.53;100663.06;4964889;28;45431;-73
2023/06/09 07:55:06;;;;;;;;;21.67;19.00;;;;;24.26;49.79;100663.19;4968414;28;45957;-73
2023/06/09 07:57:32;;;;;;;;;18.33;18.33;;;;;24.29;49.09;100657.44;4965244;28;45546;-74
2023/06/09 07:59:57;;;;;;;;;20.25;20.25;;;;;24.37;49.30;100647.56;4964036;28;45415;-76
2023/06/09 08:02:23;;;;;;;;;19.67;18.00;;;;;24.41;49.30;100649.75;4964847;28;45410;-74
2023/06/09 08:04:48;;;;;;;;;18.67;18.67;;;;;24.44;49.34;100657.53;4965824;28;46055;-76
2023/06/09 08:07:14;;;;;;;;;20.00;19.00;;;;;24.50;49.27;100655.13;4964836;28;45473;-73
2023/06/09 08:09:39;;;;;;;;;18.67;18.67;;;;;24.54;49.17;100645.59;4965496;28;45796;-72
2023/06/09 08:12:08;;;;;;;;;19.33;18.00;;;;;24.58;48.87;100647.81;4964395;28;45368;-73
2023/06/09 08:14:34;;;;;;;;;19.50;19.50;;;;;24.61;49.45;100644.72;4964324;28;46309;-74
2023/06/09 08:16:59;;;;;;;;;21.00;19.33;;;;;24.64;48.84;100640.81;4964196;28;45416;-74
2023/06/09 08:19:25;;;;;;;;;20.67;20.00;;;;;24.68;48.94;100638.59;4965498;28;45369;-74
2023/06/09 08:21:50;;;;;;;;;18.00;18.00;;;;;24.69;49.14;100638.41;4965297;28;45496;-74
2023/06/09 08:24:16;;;;;;;;;20.33;19.67;;;;;24.72;49.04;100632.63;4964593;28;55189;-74
2023/06/09 08:26:41;;;;;;;;;18.67;18.67;;;;;24.75;48.87;100628.69;4956789;28;45396;-74
2023/06/09 08:29:07;;;;;;;;;20.67;20.00;;;;;24.79;48.50;100632.75;4950892;28;45657;-73
2023/06/09 08:31:33;;;;;;;;;19.00;19.00;;;;;24.80;48.78;100628.19;4947542;28;45486;-74
2023/06/09 08:33:58;;;;;;;;;22.67;18.33;;;;;24.82;48.52;100635.13;4952067;28;46283;-74
2023/06/09 08:36:24;;;;;;;;;16.67;16.33;;;;;24.86;48.67;100631.00;4951466;28;45412;-75
2023/06/09 08:38:50;;;;;;;;;17.50;16.00;;;;;24.90;48.67;100630.66;4951749;28;45755;-75
2023/06/09 08:41:15;;;;;;;;;17.00;17.00;;;;;24.94;48.28;100624.72;4946904;28;45361;-75
2023/06/09 08:43:41;;;;;;;;;17.67;17.33;;;;;24.99;48.30;100624.16;4951417;28;45321;-73
2023/06/09 08:46:10;;;;;;;;;18.67;18.33;;;;;25.03;48.38;100614.63;4951812;28;45313;-73
2023/06/09 08:48:41;;;;;;;;;19.67;17.67;;;;;25.10;47.91;100626.44;4957645;28;45490;-74
2023/06/09 08:51:08;;;;;;;;;16.33;16.00;;;;;25.13;47.85;100626.06;4951583;28;45462;-74
2023/06/09 08:53:34;;;;;;;;;13.00;13.00;;;;;25.17;47.97;100623.84;4951615;28;46060;-74
2023/06/09 08:56:00;;;;;;;;;19.67;17.33;;;;;25.21;47.87;100621.59;4951628;28;45443;-74
2023/06/09 08:58:26;;;;;;;;;17.33;17.33;;;;;25.25;48.03;100618.34;4951360;28;45361;-74
2023/06/09 09:00:52;;;;;;;;;15.00;15.00;;;;;25.26;47.67;100616.47;4946399;28;45503;-74
2023/06/09 09:03:18;;;;;;;;;18.67;17.67;;;;;25.30;47.60;100616.94;4931498;28;45420;-74
2023/06/09 09:05:45;;;;;;;;;13.00;13.00;;;;;25.31;47.43;100616.78;4950252;28;45502;-74
2023/06/09 09:08:16;;;;;;;;;19.33;15.67;;;;;25.33;47.67;100616.56;4952089;28;45324;-72
2023/06/09 09:10:42;;;;;;;;;15.00;14.00;;;;;25.35;48.07;100620.81;4951012;28;45436;-73
2023/06/09 09:13:10;;;;;;;;;13.67;13.67;;;;;25.37;47.83;100624.19;4951619;28;46144;-73
2023/06/09 09:15:37;;;;;;;;;19.00;19.00;;;;;25.39;47.40;100619.38;4938567;28;45509;-73
2023/06/09 09:18:06;;;;;;;;;16.00;14.00;;;;;25.41;47.34;100612.97;4951338;28;45504;-72
2023/06/09 09:20:33;;;;;;;;;17.00;14.00;;;;;25.43;47.57;100610.88;4951253;28;45498;-74
2023/06/09 09:22:58;;;;;;;;;17.33;16.33;;;;;25.44;47.60;100609.84;4951237;28;46288;-74
2023/06/09 09:25:28;;;;;;;;;20.33;16.67;;;;;25.46;47.19;100610.53;4958587;28;45474;-74
2023/06/09 09:28:05;;;;;;;;;13.67;13.67;;;;;25.47;47.07;100610.31;4949766;28;45411;-73
2023/06/09 09:30:51;;;;;;;;;18.00;17.33;;;;;25.47;47.42;100602.16;4941309;28;45670;-74
2023/06/09 09:33:24;;;;;;;;;15.00;13.67;;;;;25.49;46.81;100605.56;4949106;28;46988;-74
2023/06/09 09:35:53;;;;;;;;;17.67;15.67;;;;;25.50;47.47;100598.25;4949770;28;45447;-73
2023/06/09 09:38:25;;;;;;;;;15.33;15.33;;;;;25.51;47.38;100602.66;4938273;28;45427;-74
2023/06/09 09:40:52;;;;;;;;;14.67;14.67;;;;;25.50;46.92;100590.94;4937888;28;45442;-73
2023/06/09 09:43:20;;;;;;;;;15.00;15.00;;;;;25.53;47.47;100601.44;4954401;28;45432;-73
2023/06/09 09:45:51;;;;;;;;;15.67;14.00;;;;;25.56;47.08;100596.69;4950788;28;45793;-74
2023/06/09 09:48:19;;;;;;;;;15.33;15.33;;;;;25.58;47.08;100598.19;4953386;28;45682;-73
2023/06/09 09:50:47;;;;;;;;;15.67;15.67;;;;;25.61;46.91;100586.97;4951071;28;45333;-73
2023/06/09 09:53:13;;;;;;;;;16.67;16.00;;;;;25.61;46.99;100591.53;4951027;28;45905;-73
2023/06/09 09:55:42;;;;;;;;;17.33;16.00;;;;;25.60;47.10;100585.28;4950879;28;45447;-74
2023/06/09 09:58:09;;;;;;;;;16.33;16.33;;;;;25.61;46.81;100583.38;4951264;28;45655;-73
2023/06/09 10:00:37;;;;;;;;;14.33;14.33;;;;;25.62;47.29;100585.91;4960219;28;45633;-76
2023/06/09 10:03:07;;;;;;;;;18.33;18.00;;;;;25.62;47.23;100577.75;4959368;28;45666;-75
2023/06/09 10:05:38;;;;;;;;;13.33;13.00;;;;;25.64;47.26;100578.44;4954299;28;45403;-75
2023/06/09 10:08:05;;;;;;;;;14.00;14.00;;;;;25.64;46.76;100583.88;4951383;28;45308;-73
2023/06/09 10:10:32;;;;;;;;;17.00;16.00;;;;;25.63;46.59;100582.16;4946953;28;45620;-74
2023/06/09 10:12:59;;;;;;;;;20.67;17.00;;;;;25.68;47.40;100578.03;4944506;28;45564;-73
2023/06/09 10:15:24;;;;;;;;;15.33;15.33;;;;;25.69;46.91;100577.88;4948972;28;45822;-73
2023/06/09 10:17:53;;;;;;;;;15.00;14.00;;;;;25.71;46.82;100580.41;4950191;28;45704;-73
2023/06/09 10:20:19;;;;;;;;;19.00;16.00;;;;;25.70;47.05;100586.88;4951921;28;45507;-73
2023/06/09 10:22:46;;;;;;;;;15.00;15.00;;;;;25.70;47.12;100578.72;4950408;28;46439;-73
2023/06/09 10:25:12;;;;;;;;;15.67;15.00;;;;;25.71;46.69;100580.41;4947149;28;45455;-73
2023/06/09 10:27:38;;;;;;;;;17.67;16.00;;;;;25.71;47.03;100581.22;4942759;28;45345;-73
2023/06/09 10:30:05;;;;;;;;;17.33;17.00;;;;;25.72;46.87;100587.50;4950249;28;45534;-74
2023/06/09 10:32:34;;;;;;;;;14.00;12.00;;;;;25.71;46.56;100581.22;4950191;28;47087;-73
2023/06/09 10:35:01;;;;;;;;;13.67;13.67;;;;;25.71;46.54;100586.66;4950330;28;45497;-73
2023/06/09 10:37:31;;;;;;;;;16.00;15.00;;;;;25.70;46.79;100582.25;4950788;28;45425;-73
2023/06/09 10:40:12;;;;;;;;;18.00;15.00;;;;;25.73;47.16;100583.75;4944043;28;45716;-73
2023/06/09 10:42:53;;;;;;;;;18.00;17.00;;;;;25.73;47.00;100590.06;4945910;28;47086;-73
2023/06/09 10:45:19;;;;;;;;;14.33;14.33;;;;;25.72;47.01;100580.22;4949814;28;45457;-73
2023/06/09 10:47:50;;;;;;;;;13.33;13.33;;;;;25.74;46.61;100580.84;4949461;28;45479;-73
2023/06/09 10:50:32;;;;;;;;;12.33;12.33;;;;;25.74;46.36;100577.28;4949742;28;45325;-73
2023/06/09 10:52:59;;;;;;;;;11.33;10.00;;;;;25.75;46.80;100579.81;4950869;28;46390;-73
2023/06/09 10:55:27;;;;;;;;;13.67;12.33;;;;;25.76;46.66;100580.69;4950534;28;45475;-73
2023/06/09 10:57:53;;;;;;;;;16.00;16.00;;;;;25.76;46.28;100581.50;4937580;28;45375;-73
2023/06/09 11:00:19;;;;;;;;;16.67;13.33;;;;;25.77;46.60;100580.50;4949667;28;45435;-73
2023/06/09 11:03:12;;;;;;;;;15.33;15.33;;;;;25.77;46.30;100572.34;4950146;28;46928;-74
2023/06/09 11:05:44;;;;;;;;;15.33;15.33;;;;;25.78;46.52;100579.47;4960105;28;45555;-73
2023/06/09 11:08:10;;;;;;;;;12.33;12.33;;;;;25.77;47.05;100577.78;4950244;28;45474;-73
2023/06/09 11:10:38;;;;;;;;;14.00;14.00;;;;;25.78;46.24;100578.59;4949812;28;45329;-73
2023/06/09 11:13:39;;;;;;;;;15.33;13.33;;;;;25.77;46.63;100580.50;4950325;28;45937;-73
2023/06/09 11:16:07;;;;;;;;;14.33;14.00;;;;;25.78;46.85;100589.47;4943930;28;45403;-73
2023/06/09 11:18:32;;;;;;;;;14.00;14.00;;;;;25.79;46.31;100583.03;4946337;28;45391;-73
2023/06/09 11:21:08;;;;;;;;;15.67;14.67;;;;;25.78;46.41;100584.03;4950148;28;45358;-73
2023/06/09 11:23:55;;;;;;;;;13.67;13.67;;;;;25.78;46.58;100584.03;4950077;28;45469;-73
2023/06/09 11:26:25;;;;;;;;;14.00;13.33;;;;;25.77;46.83;100585.94;5050074;28;45412;-74
2023/06/09 11:28:51;;;;;;;;;13.00;13.00;;;;;25.77;46.32;100587.78;4950222;28;45442;-73
2023/06/09 11:31:17;;;;;;;;;12.67;12.67;;;;;25.78;46.91;100597.63;4947228;28;45583;-74
2023/06/09 11:33:44;;;;;;;;;14.00;13.33;;;;;25.77;46.50;100579.66;4949604;28;46164;-71
2023/06/09 11:36:15;;;;;;;;;16.00;15.00;;;;;25.77;46.89;100587.78;4949806;28;45493;-72
2023/06/09 11:38:41;;;;;;;;;15.33;12.67;;;;;25.78;46.66;100581.31;4947612;28;45597;-72
2023/06/09 11:41:10;;;;;;;;;12.00;11.33;;;;;25.81;47.19;100586.41;4938627;28;45520;-71
2023/06/09 11:43:36;;;;;;;;;13.00;12.00;;;;;25.82;47.01;100576.38;4955129;28;46239;-73
2023/06/09 11:46:02;;;;;;;;;14.67;14.67;;;;;25.82;46.65;100579.09;4951143;28;54728;-75
2023/06/09 11:48:27;;;;;;;;;15.00;13.67;;;;;25.83;47.04;100576.16;4949042;28;45333;-71
2023/06/09 11:50:53;;;;;;;;;15.33;14.33;;;;;25.83;46.98;100586.22;4948061;28;49495;-71
2023/06/09 11:53:24;;;;;;;;;16.00;15.00;;;;;25.82;46.41;100576.38;4949043;28;45373;-72
2023/06/09 11:56:00;;;;;;;;;16.00;15.67;;;;;25.81;46.84;100572.81;4950413;28;45395;-71
2023/06/09 11:58:25;;;;;;;;;16.00;14.67;;;;;25.79;47.14;100583.03;4949198;28;45521;-72
2023/06/09 12:00:52;;;;;;;;;15.33;15.33;;;;;25.76;47.13;100572.53;4949484;28;45350;-72
2023/06/09 12:03:19;;;;;;;;;13.67;12.33;;;;;25.74;46.90;100564.56;4958111;28;45706;-72
2023/06/09 12:05:49;;;;;;;;;19.00;17.33;;;;;25.72;47.10;100558.47;4952071;28;45422;-72
2023/06/09 12:08:14;;;;;;;;;17.67;15.67;;;;;25.71;47.34;100564.09;4950942;28;45511;-71
2023/06/09 12:10:40;;;;;;;;;15.67;15.67;;;;;25.70;47.25;100556.97;4952077;28;45495;-72
2023/06/09 12:13:06;;;;;;;;;14.00;14.00;;;;;25.70;47.10;100563.25;4951706;28;45489;-71
2023/06/09 12:15:31;;;;;;;;;16.00;16.00;;;;;25.69;46.94;100544.41;4951302;28;45429;-72
2023/06/09 12:17:58;;;;;;;;;15.67;14.00;;;;;25.70;46.97;100541.50;4952002;28;45699;-73
2023/06/09 12:20:30;;;;;;;;;14.00;13.33;;;;;25.71;46.86;100547.78;4951507;28;45545;-72
2023/06/09 12:23:06;;;;;;;;;12.00;12.00;;;;;25.69;47.43;100544.41;4951526;28;45343;-72
2023/06/09 12:25:33;;;;;;;;;14.00;14.00;;;;;25.69;47.27;100534.38;4952035;28;45479;-72
2023/06/09 12:28:19;;;;;;;;;13.33;13.33;;;;;25.70;46.77;100546.09;4951838;28;45440;-72
2023/06/09 12:30:49;;;;;;;;;12.67;12.00;;;;;25.71;46.70;100535.03;4952383;28;45518;-72
2023/06/09 12:33:35;;;;;;;;;11.33;11.33;;;;;25.73;47.24;100540.28;4958492;28;45447;-72
2023/06/09 12:36:11;;;;;;;;;13.67;12.00;;;;;25.72;47.54;100536.72;4946886;28;45435;-71
2023/06/09 12:38:38;;;;;;;;;15.33;13.67;;;;;25.74;47.39;100531.94;4968536;28;45495;-71
2023/06/09 12:41:13;;;;;;;;;13.33;13.33;;;;;25.73;47.48;100530.25;4938988;28;45735;-73
2023/06/09 12:43:48;;;;;;;;;12.67;11.33;;;;;25.70;46.93;100536.06;4951359;28;46220;-72
2023/06/09 12:46:25;;;;;;;;;16.67;16.00;;;;;25.65;47.42;100525.75;4952160;28;46416;-72
2023/06/09 12:48:57;;;;;;;;;20.67;14.67;;;;;25.66;47.36;100513.00;4952015;28;45450;-71
2023/06/09 12:51:24;;;;;;;;;17.67;14.67;;;;;25.70;46.78;100527.06;4951305;28;45633;-73
2023/06/09 12:53:50;;;;;;;;;13.00;13.00;;;;;25.69;47.40;100518.06;4950214;28;46401;-71
2023/06/09 12:56:16;;;;;;;;;10.67;10.67;;;;;25.68;47.16;100510.09;4950933;28;45437;-73
2023/06/09 12:58:42;;;;;;;;;10.67;10.67;;;;;25.65;47.39;100516.75;4950878;28;45446;-73
2023/06/09 13:01:07;;;;;;;;;10.67;10.67;;;;;25.65;47.32;100524.91;4951683;28;45399;-73
2023/06/09 13:03:32;;;;;;;;;13.00;13.00;;;;;25.68;47.31;100518.25;4950089;28;46104;-70
2023/06/09 13:05:59;;;;;;;;;11.33;11.33;;;;;25.69;46.78;100518.06;4950604;28;45470;-71
2023/06/09 13:08:24;;;;;;;;;12.00;12.00;;;;;25.69;47.11;100520.78;4949996;28;45820;-73
2023/06/09 13:10:49;;;;;;;;;14.00;14.00;;;;;25.71;47.46;100523.31;4952082;28;45520;-73
2023/06/09 13:13:15;;;;;;;;;14.33;13.00;;;;;25.71;46.96;100502.41;4951193;28;56096;-72
2023/06/09 13:15:40;;;;;;;;;12.00;11.00;;;;;25.73;47.39;100505.78;4938967;28;45447;-72
2023/06/09 13:18:09;;;;;;;;;13.00;13.00;;;;;25.76;46.70;100501.84;4951383;28;46060;-72
2023/06/09 13:20:34;;;;;;;;;13.00;13.00;;;;;25.78;47.20;100495.19;4939186;28;45419;-72
2023/06/09 13:23:00;;;;;;;;;15.33;15.33;;;;;25.80;47.29;100497.72;4950987;28;51606;-72
2023/06/09 13:25:25;;;;;;;;;13.67;13.67;;;;;25.82;46.83;100495.66;4951313;28;45644;-72
2023/06/09 13:27:50;;;;;;;;;13.67;13.67;;;;;25.83;46.82;100501.94;4952216;28;45688;-72
2023/06/09 13:30:16;;;;;;;;;14.00;13.00;;;;;25.83;46.92;100494.59;4950384;28;45533;-72
2023/06/09 13:32:41;;;;;;;;;12.00;12.00;;;;;25.82;46.79;100494.81;4957427;28;45353;-71
2023/06/09 13:35:07;;;;;;;;;12.00;11.33;;;;;25.81;47.03;100501.28;4949773;28;45682;-72
2023/06/09 13:37:32;;;;;;;;;13.67;12.67;;;;;25.81;46.97;100498.53;5069125;27;45354;-72
2023/06/09 13:39:57;;;;;;;;;11.00;11.00;;;;;25.80;46.98;100486.84;4950350;28;49432;-73
2023/06/09 13:42:23;;;;;;;;;13.67;13.67;;;;;25.80;46.97;100489.56;4950358;28;50776;-72
2023/06/09 13:44:48;;;;;;;;;11.33;11.33;;;;;25.77;46.57;100487.22;4950612;28;45356;-74
2023/06/09 13:47:13;;;;;;;;;14.00;14.00;;;;;25.79;46.76;100488.72;4947913;28;45552;-76
2023/06/09 13:49:39;;;;;;;;;15.00;12.00;;;;;25.79;47.22;100487.91;4950674;28;45567;-71
2023/06/09 13:52:04;;;;;;;;;13.67;11.67;;;;;25.81;46.60;100488.53;4954735;28;47019;-72
2023/06/09 13:54:30;;;;;;;;;11.33;11.33;;;;;25.80;47.03;100484.13;4950793;28;46944;-72
2023/06/09 13:56:55;;;;;;;;;13.67;13.33;;;;;25.83;47.12;100483.72;4947649;28;45347;-73
2023/06/09 13:59:21;;;;;;;;;12.33;12.00;;;;;25.85;47.23;100486.28;4946265;28;45609;-72
2023/06/09 14:01:47;;;;;;;;;13.00;13.00;;;;;25.86;47.17;100477.06;4957889;28;46578;-74
2023/06/09 14:04:13;;;;;;;;;12.67;10.33;;;;;25.86;47.18;100477.94;4946133;28;45553;-72
2023/06/09 14:06:40;;;;;;;;;15.67;13.00;;;;;25.87;47.20;100476.88;4948813;28;45721;-73
2023/06/09 14:09:07;;;;;;;;;14.00;14.00;;;;;25.87;46.70;100467.91;4948732;28;47000;-72
2023/06/09 14:11:34;;;;;;;;;14.67;14.67;;;;;25.86;47.14;100467.06;4950961;28;47048;-72
2023/06/09 14:13:59;;;;;;;;;11.67;11.67;;;;;25.87;47.00;100468.72;4950081;28;45662;-72
2023/06/09 14:16:25;;;;;;;;;12.00;12.00;;;;;25.88;47.28;100469.59;4950232;28;45697;-73
2023/06/09 14:18:52;;;;;;;;;12.00;11.67;;;;;25.89;47.35;100460.38;4949443;28;55640;-74
2023/06/09 14:21:17;;;;;;;;;15.33;11.33;;;;;25.92;47.68;100470.88;4949462;28;46162;-72
2023/06/09 14:23:43;;;;;;;;;11.33;11.33;;;;;25.97;47.75;100459.44;4992432;28;45471;-72
2023/06/09 14:26:12;;;;;;;;;14.00;12.33;;;;;26.01;47.22;100461.59;4950127;28;45398;-72
2023/06/09 14:28:38;;;;;;;;;11.00;9.33;;;;;26.04;47.69;100460.34;4947989;28;45792;-72
2023/06/09 14:31:03;;;;;;;;;12.67;12.33;;;;;26.06;47.26;100458.28;4944750;28;45497;-74
2023/06/09 14:33:28;;;;;;;;;12.67;11.33;;;;;26.09;47.17;100448.88;4945192;28;45389;-72
2023/06/09 14:35:54;;;;;;;;;10.33;9.00;;;;;26.10;47.06;100453.28;4944751;28;45562;-72
2023/06/09 14:38:19;;;;;;;;;12.33;11.00;;;;;26.10;47.66;100456.84;4950150;28;45757;-72
2023/06/09 14:40:44;;;;;;;;;11.00;10.67;;;;;26.12;47.11;100446.63;4938228;28;45929;-72
2023/06/09 14:43:10;;;;;;;;;10.33;10.33;;;;;26.11;47.34;100450.38;4949390;28;45495;-72
2023/06/09 14:45:36;;;;;;;;;12.67;12.33;;;;;26.12;47.27;100443.91;4955141;28;45464;-73
2023/06/09 14:48:02;;;;;;;;;10.67;9.33;;;;;26.15;47.74;100450.81;4938474;28;45491;-72
2023/06/09 14:50:39;;;;;;;;;9.33;9.33;;;;;26.18;47.87;100448.59;4949830;28;45506;-73
2023/06/09 14:53:05;;;;;;;;;13.33;11.00;;;;;26.23;47.96;100442.53;4938614;28;45713;-73
2023/06/09 14:55:43;;;;;;;;;12.00;11.00;;;;;26.26;47.55;100435.91;4950380;28;45742;-72
2023/06/09 14:58:09;;;;;;;;;11.00;11.00;;;;;26.27;47.94;100441.16;4938886;28;45477;-72
2023/06/09 15:00:38;;;;;;;;;13.33;11.00;;;;;26.25;47.70;100432.38;4948567;28;45594;-72
2023/06/09 15:03:05;;;;;;;;;10.67;9.33;;;;;26.25;48.07;100435.09;4949623;28;45725;-72
2023/06/09 15:05:31;;;;;;;;;11.33;10.00;;;;;26.25;47.40;100426.94;4949530;28;45621;-72
2023/06/09 15:07:58;;;;;;;;;11.00;11.00;;;;;26.30;47.63;100440.78;4950118;28;45801;-71
2023/06/09 15:10:29;;;;;;;;;9.33;9.33;;;;;26.34;47.40;100435.78;4948971;28;47067;-72
2023/06/09 15:12:56;;;;;;;;;9.00;9.00;;;;;26.38;47.57;100430.78;4949261;28;45435;-72
2023/06/09 15:15:23;;;;;;;;;10.33;10.33;;;;;26.40;47.92;100432.28;4949674;28;45386;-72
2023/06/09 15:17:49;;;;;;;;;9.33;9.33;;;;;26.40;47.23;100439.63;4950063;28;45396;-71
2023/06/09 15:20:16;;;;;;;;;10.00;10.00;;;;;26.38;47.77;100428.06;4936861;28;45975;-73
2023/06/09 15:22:42;;;;;;;;;9.33;7.67;;;;;26.36;47.42;100422.81;4949559;28;45528;-71
2023/06/09 15:25:08;;;;;;;;;9.00;9.00;;;;;26.39;47.54;100427.03;4949823;28;45744;-72
2023/06/09 15:27:35;;;;;;;;;9.33;9.33;;;;;26.38;47.88;100431.63;4948999;28;45449;-72
2023/06/09 15:30:05;;;;;;;;;9.00;8.00;;;;;26.38;47.50;100436.22;4949523;28;45460;-72
2023/06/09 15:32:30;;;;;;;;;7.00;7.00;;;;;26.36;48.13;100436.41;4942966;28;45542;-72
2023/06/09 15:34:56;;;;;;;;;10.00;10.00;;;;;26.39;47.77;100429.75;5049993;28;45697;-73
2023/06/09 15:37:21;;;;;;;;;10.00;10.00;;;;;26.40;48.14;100432.28;4950121;28;45537;-72
2023/06/09 15:39:47;;;;;;;;;10.67;10.00;;;;;26.44;48.16;100430.00;4947535;28;46204;-72
2023/06/09 15:42:12;;;;;;;;;10.33;9.00;;;;;26.48;47.55;100441.34;4946271;28;45421;-72
2023/06/09 15:44:38;;;;;;;;;9.00;9.00;;;;;26.49;47.63;100437.59;4950686;28;45931;-71
2023/06/09 15:47:04;;;;;;;;;8.00;8.00;;;;;26.47;47.61;100435.06;4952011;28;45753;-71
2023/06/09 15:49:30;;;;;;;;;9.67;9.67;;;;;26.48;47.71;100433.19;4950591;28;45531;-72
2023/06/09 15:51:55;;;;;;;;;8.67;8.67;;;;;26.48;47.82;100431.28;4956015;28;45726;-72
2023/06/09 15:54:20;;;;;;;;;8.67;8.67;;;;;26.47;47.82;100434.19;4953710;28;45586;-71
2023/06/09 15:56:46;;;;;;;;;9.33;9.33;;;;;26.49;46.19;100446.59;4953347;28;45622;-71
2023/06/09 15:59:11;;;;;;;;;13.33;12.67;;;;;26.49;45.97;100438.44;4952097;28;46144;-72
2023/06/09 16:01:36;;;;;;;;;12.00;12.00;;;;;26.51;45.57;100441.78;4952162;28;45475;-72
2023/06/09 16:04:02;;;;;;;;;14.00;14.00;;;;;26.52;45.49;100439.94;4952370;28;45393;-72
2023/06/09 16:06:27;;;;;;;;;11.67;10.67;;;;;26.52;45.99;100440.75;4947609;28;45558;-72
2023/06/09 16:08:52;;;;;;;;;13.33;12.00;;;;;26.53;45.48;100442.44;4944013;28;46020;-73
2023/06/09 16:11:18;;;;;;;;;12.67;12.00;;;;;26.53;46.03;100447.88;4949747;28;45769;-73
2023/06/09 16:13:44;;;;;;;;;10.33;10.33;;;;;26.53;45.35;100439.69;4952514;28;45597;-72
2023/06/09 16:16:09;;;;;;;;;11.00;9.67;;;;;26.52;45.75;100426.31;4951215;28;45421;-74
2023/06/09 16:18:34;;;;;;;;;10.67;10.67;;;;;26.53;46.13;100434.25;4950456;28;45905;-73
2023/06/09 16:21:00;;;;;;;;;11.00;10.00;;;;;26.52;45.85;100437.19;4950430;28;45507;-73
2023/06/09 16:23:25;;;;;;;;;14.67;12.00;;;;;26.51;46.02;100430.91;4952210;28;45489;-73
2023/06/09 16:25:50;;;;;;;;;9.67;9.67;;;;;26.50;46.55;100425.66;4951900;28;45643;-73
2023/06/09 16:28:16;;;;;;;;;12.67;11.67;;;;;26.50;46.78;100431.97;4952171;28;46164;-72
2023/06/09 16:30:41;;;;;;;;;13.67;13.00;;;;;26.48;46.15;100430.47;4954606;28;45954;-73
2023/06/09 16:33:08;;;;;;;;;9.67;9.67;;;;;26.49;46.82;100423.97;4950900;28;45474;-72
2023/06/09 16:35:34;;;;;;;;;12.67;12.33;;;;;26.46;46.50;100430.66;4951466;28;45450;-72
2023/06/09 16:38:00;;;;;;;;;10.33;9.33;;;;;26.46;47.15;100430.66;4949874;28;45428;-74
2023/06/09 16:40:26;;;;;;;;;11.33;10.33;;;;;26.46;47.01;100435.25;4949993;28;45529;-72
